Time;durP1;ratioP1;P1;durP2;ratioP2;P2;SDS_P1;SDS_P2;PMS_P1;PMS_P2;Temp;Humidity;BMP_temperature;BMP_pressure;BME280_temperature;BME280_humidity;BME280_pressure;Samples;Min_cycle;Max_cycle;Signal;HPM_P1;HPM_P2
2022/11/20 00:00:08;;;;;;;;;;;;;;;4.89;59.52;99211.00;4468465;32;34877;-64
2022/11/20 00:02:35;;;;;;;;;;;;;;;5.18;58.52;99200.44;4475225;32;34056;-66
2022/11/20 00:05:03;;;;;;;;;;;;;;;5.12;58.43;99209.63;4466852;32;34098;-63
2022/11/20 00:07:30;;;;;;;;;;;;;;;5.77;55.97;99202.94;4466862;32;34199;-65
2022/11/20 00:09:57;;;;;;;;;;;;;;;6.15;55.12;99200.53;4467729;32;34386;-65
2022/11/20 00:12:25;;;;;;;;;;;;;;;6.64;53.69;99191.94;4478326;32;33562;-64
2022/11/20 00:14:52;;;;;;;;;;;;;;;6.75;53.91;99208.03;4475861;32;34273;-62
2022/11/20 00:17:19;;;;;;;;;;;;;;;7.44;52.53;99197.09;4467587;32;34363;-64
2022/11/20 00:19:47;;;;;;;;;;;;;;;7.72;51.68;99192.47;4467121;32;34580;-64
2022/11/20 00:22:15;;;;;;;;;;;;;;;7.83;51.82;99206.75;4475896;32;32745;-65
2022/11/20 00:24:42;;;;;;;;;;;;;;;7.92;51.60;99213.19;4470549;31;33784;-65
2022/11/20 00:27:09;;;;;;;;;;;;;;;7.86;51.79;99209.16;4472652;32;35403;-63
2022/11/20 00:29:37;;;;;;;;;;;;;;;8.19;50.44;99197.03;4470625;32;34066;-65
2022/11/20 00:32:04;;;;;;;;;;;;;;;8.27;50.23;99188.44;4478201;32;31902;-64
2022/11/20 00:34:32;;;;;;;;;;;;;;;8.45;49.65;99203.13;4470238;32;34931;-63
2022/11/20 00:36:59;;;;;;;;;;;;;;;8.44;49.66;99209.41;4469882;32;34328;-65
2022/11/20 00:39:26;;;;;;;;;;;;;;;8.61;48.96;99225.00;4475753;32;34029;-65
2022/11/20 00:41:54;;;;;;;;;;;;;;;8.53;48.41;99230.06;4469682;32;33230;-64
2022/11/20 00:44:21;;;;;;;;;;;;;;;8.57;48.77;99212.88;4475963;32;33843;-64
2022/11/20 00:46:48;;;;;;;;;;;;;;;8.70;48.00;99206.59;4482386;32;34415;-64
2022/11/20 00:49:16;;;;;;;;;;;;;;;8.41;48.16;99196.31;4469683;32;34816;-64
2022/11/20 00:51:43;;;;;;;;;;;;;;;8.17;49.29;99190.94;4469808;32;33728;-63
2022/11/20 00:54:10;;;;;;;;;;;;;;;8.16;48.95;99195.44;4480146;32;34123;-64
2022/11/20 00:56:38;;;;;;;;;;;;;;;7.10;49.92;99191.47;4475183;32;34256;-65
2022/11/20 00:59:05;;;;;;;;;;;;;;;7.40;49.99;99192.94;4472159;32;34941;-63
2022/11/20 01:01:32;;;;;;;;;;;;;;;7.38;48.72;99184.22;4472525;32;33646;-62
2022/11/20 01:04:00;;;;;;;;;;;;;;;7.01;49.79;99184.13;4472649;32;33296;-62
2022/11/20 01:06:31;;;;;;;;;;;;;;;6.72;51.25;99202.09;4470190;32;33908;-62
2022/11/20 01:08:59;;;;;;;;;;;;;;;6.83;50.01;99206.66;4469620;32;34284;-62
2022/11/20 01:11:31;;;;;;;;;;;;;;;6.70;51.63;99203.97;4477110;32;33127;-62
2022/11/20 01:13:59;;;;;;;;;;;;;;;6.72;50.65;99205.59;4467926;32;35158;-62
2022/11/20 01:16:27;;;;;;;;;;;;;;;7.20;49.52;99208.50;4475528;32;35806;-63
2022/11/20 01:18:56;;;;;;;;;;;;;;;7.51;49.22;99213.50;4474642;32;34034;-62
2022/11/20 01:21:28;;;;;;;;;;;;;;;7.52;50.13;99220.53;4476881;32;33269;-62
2022/11/20 01:23:55;;;;;;;;;;;;;;;7.87;49.08;99216.22;4432526;32;918187;-62
2022/11/20 01:26:24;;;;;;;;;;;;;;;7.86;49.48;99218.97;4469809;32;34302;-61
2022/11/20 01:28:51;;;;;;;;;;;;;;;8.03;48.70;99220.44;4468955;32;35285;-63
2022/11/20 01:31:20;;;;;;;;;;;;;;;8.27;48.21;99215.13;4475364;32;33993;-63
2022/11/20 01:33:49;;;;;;;;;;;;;;;7.84;48.83;99203.09;4483263;32;35263;-62
2022/11/20 01:36:16;;;;;;;;;;;;;;;8.36;47.88;99203.78;4480312;32;34075;-63
2022/11/20 01:38:44;;;;;;;;;;;;;;;8.43;47.73;99202.38;4475218;32;35131;-62
2022/11/20 01:43:20;;;;;;;;;;;;;;;8.36;47.78;99195.78;4475436;32;33016;-63
2022/11/20 01:43:59;;;;;;;;;;;;;;;8.27;47.75;99201.78;4474296;32;35308;-63
2022/11/20 01:46:27;;;;;;;;;;;;;;;8.09;48.26;99195.97;4470009;32;34390;-62
2022/11/20 01:48:56;;;;;;;;;;;;;;;8.34;47.58;99195.03;4470018;32;34709;-64
2022/11/20 01:51:25;;;;;;;;;;;;;;;8.33;47.82;99190.66;4468961;32;34090;-63
2022/11/20 01:53:53;;;;;;;;;;;;;;;8.33;47.57;99177.34;4478152;32;34103;-62
2022/11/20 01:56:20;;;;;;;;;;;;;;;8.41;47.80;99177.66;4460214;32;33901;-64
2022/11/20 01:58:49;;;;;;;;;;;;;;;8.25;48.35;99180.56;4477142;32;34250;-63
2022/11/20 02:01:17;;;;;;;;;;;;;;;8.44;47.46;99174.72;4476576;32;33276;-64
2022/11/20 02:03:44;;;;;;;;;;;;;;;8.29;48.50;99183.88;4481474;31;35241;-64
2022/11/20 02:06:15;;;;;;;;;;;;;;;8.17;49.04;99183.78;4474302;32;35593;-63
2022/11/20 02:08:42;;;;;;;;;;;;;;;8.52;47.68;99185.69;4477295;32;33068;-63
2022/11/20 02:11:10;;;;;;;;;;;;;;;8.63;46.98;99183.06;4468815;32;33403;-62
2022/11/20 02:13:43;;;;;;;;;;;;;;;8.57;47.31;99191.53;4474773;32;34285;-64
2022/11/20 02:16:22;;;;;;;;;;;;;;;8.60;47.22;99177.97;4466428;32;35642;-63
2022/11/20 02:18:50;;;;;;;;;;;;;;;8.61;47.15;99182.34;4472521;32;33973;-63
2022/11/20 02:21:23;;;;;;;;;;;;;;;8.56;47.54;99191.63;4470127;32;33171;-63
2022/11/20 02:24:01;;;;;;;;;;;;;;;8.65;47.28;99198.09;4474186;32;34717;-62
2022/11/20 02:26:29;;;;;;;;;;;;;;;8.73;46.98;99201.91;4464067;32;35852;-64
2022/11/20 02:28:57;;;;;;;;;;;;;;;8.67;47.49;99202.38;4466330;32;35412;-62
2022/11/20 02:31:24;;;;;;;;;;;;;;;8.72;47.23;99191.34;4468835;32;33156;-62
2022/11/20 02:33:57;;;;;;;;;;;;;;;8.65;48.02;99174.09;4461970;32;34171;-64
2022/11/20 02:36:26;;;;;;;;;;;;;;;8.80;47.37;99176.44;4470415;32;36590;-64
2022/11/20 02:38:54;;;;;;;;;;;;;;;8.68;47.70;99173.88;4479032;32;34333;-64
2022/11/20 02:41:22;;;;;;;;;;;;;;;8.44;48.08;99180.06;4481323;32;33738;-64
2022/11/20 02:43:49;;;;;;;;;;;;;;;8.57;47.86;99183.53;4478333;32;35205;-64
2022/11/20 02:46:16;;;;;;;;;;;;;;;8.56;47.83;99165.81;4480009;32;35085;-62
2022/11/20 02:48:43;;;;;;;;;;;;;;;8.48;48.20;99168.22;4473957;32;34129;-64
2022/11/20 02:51:11;;;;;;;;;;;;;;;8.62;47.76;99173.34;4477993;32;31524;-62
2022/11/20 02:53:38;;;;;;;;;;;;;;;8.21;48.63;99178.25;4478071;32;34455;-65
2022/11/20 02:56:06;;;;;;;;;;;;;;;7.49;50.93;99186.13;4474406;32;34101;-62
2022/11/20 02:58:33;;;;;;;;;;;;;;;8.01;49.43;99174.38;4477901;32;33604;-62
2022/11/20 03:01:00;;;;;;;;;;;;;;;8.23;48.78;99161.16;4464456;32;33077;-63
2022/11/20 03:03:28;;;;;;;;;;;;;;;8.16;48.90;99162.59;4466931;32;33845;-62
2022/11/20 03:05:55;;;;;;;;;;;;;;;8.15;49.17;99153.75;4476327;32;34061;-62
2022/11/20 03:08:22;;;;;;;;;;;;;;;8.28;49.04;99155.47;4472068;32;35271;-63
2022/11/20 03:10:50;;;;;;;;;;;;;;;8.00;50.29;99146.87;4464114;32;33387;-62
2022/11/20 03:13:17;;;;;;;;;;;;;;;8.24;49.65;99154.87;4476307;32;35206;-63
2022/11/20 03:15:44;;;;;;;;;;;;;;;8.38;49.44;99159.22;4474727;32;33958;-63
2022/11/20 03:18:13;;;;;;;;;;;;;;;7.98;50.42;99148.78;4463343;32;34237;-62
2022/11/20 03:20:40;;;;;;;;;;;;;;;7.49;51.29;99155.03;4467524;32;32194;-63
2022/11/20 03:23:08;;;;;;;;;;;;;;;8.07;51.55;99165.94;4479911;32;33853;-64
2022/11/20 03:25:35;;;;;;;;;;;;;;;8.23;50.12;99179.84;4477296;32;34304;-62
2022/11/20 03:28:02;;;;;;;;;;;;;;;8.26;49.85;99186.75;4463873;32;33878;-62
2022/11/20 03:30:30;;;;;;;;;;;;;;;7.82;51.39;99180.19;4464874;32;33010;-62
2022/11/20 03:32:57;;;;;;;;;;;;;;;7.30;52.43;99191.91;4464920;32;32780;-64
2022/11/20 03:35:25;;;;;;;;;;;;;;;7.88;51.18;99182.41;4467976;32;34631;-63
2022/11/20 03:37:53;;;;;;;;;;;;;;;8.27;50.05;99177.78;4465835;32;32991;-63
2022/11/20 03:40:20;;;;;;;;;;;;;;;8.13;50.16;99171.66;4474175;32;33140;-65
2022/11/20 03:42:47;;;;;;;;;;;;;;;8.59;49.12;99172.75;4475276;32;33932;-63
2022/11/20 03:45:16;;;;;;;;;;;;;;;8.42;49.48;99168.69;4475167;32;34224;-64
2022/11/20 03:47:43;;;;;;;;;;;;;;;8.68;49.00;99165.88;4475594;32;34111;-62
2022/11/20 03:50:12;;;;;;;;;;;;;;;8.66;49.33;99165.97;4463986;32;33046;-64
2022/11/20 03:52:40;;;;;;;;;;;;;;;8.67;49.61;99169.47;4480326;32;32747;-65
2022/11/20 03:55:07;;;;;;;;;;;;;;;8.79;49.37;99177.41;4477887;32;35352;-64
2022/11/20 03:57:34;;;;;;;;;;;;;;;8.94;48.85;99183.38;4464871;32;33760;-63
2022/11/20 04:00:03;;;;;;;;;;;;;;;8.94;48.78;99172.72;4468302;32;32969;-64
2022/11/20 04:02:30;;;;;;;;;;;;;;;8.88;49.35;99165.19;4466317;32;33683;-64
2022/11/20 04:04:57;;;;;;;;;;;;;;;8.66;49.65;99155.28;4473119;32;35527;-63
2022/11/20 04:07:25;;;;;;;;;;;;;;;8.79;49.49;99152.53;4470190;32;34089;-62
2022/11/20 04:09:52;;;;;;;;;;;;;;;8.86;49.26;99154.63;4466945;32;34492;-62
2022/11/20 04:12:19;;;;;;;;;;;;;;;8.83;49.42;99154.03;4465453;32;34616;-64
2022/11/20 04:14:47;;;;;;;;;;;;;;;8.67;49.97;99143.69;4469122;32;33979;-62
2022/11/20 04:17:14;;;;;;;;;;;;;;;8.46;49.89;99143.47;4467034;32;35223;-63
2022/11/20 04:19:41;;;;;;;;;;;;;;;8.76;49.21;99128.75;4468172;32;33489;-64
2022/11/20 04:22:11;;;;;;;;;;;;;;;8.78;49.04;99124.16;4466831;32;35101;-64
2022/11/20 04:24:38;;;;;;;;;;;;;;;8.82;49.09;99123.78;4467814;32;34651;-64
2022/11/20 04:27:06;;;;;;;;;;;;;;;8.87;48.49;99123.47;4480487;32;33703;-64
2022/11/20 04:29:33;;;;;;;;;;;;;;;8.72;49.41;99130.81;4480427;32;33009;-63
2022/11/20 04:32:00;;;;;;;;;;;;;;;8.72;49.28;99132.63;4482877;32;33897;-63
2022/11/20 04:34:27;;;;;;;;;;;;;;;8.66;49.16;99131.28;4483103;32;32738;-63
2022/11/20 04:36:55;;;;;;;;;;;;;;;8.90;48.68;99133.91;4482403;32;33853;-64
2022/11/20 04:39:22;;;;;;;;;;;;;;;8.98;48.76;99130.63;4481417;32;33344;-63
2022/11/20 04:42:28;;;;;;;;;;;;;;;8.79;49.54;99124.03;4477250;32;33872;-63
2022/11/20 04:44:37;;;;;;;;;;;;;;;8.86;49.58;99119.09;4471431;32;33118;-64
2022/11/20 04:47:05;;;;;;;;;;;;;;;8.72;50.39;99122.81;4477924;32;33687;-63
2022/11/20 04:49:32;;;;;;;;;;;;;;;8.88;49.19;99122.47;4481780;32;32951;-70
2022/11/20 04:51:59;;;;;;;;;;;;;;;9.01;48.77;99120.53;4469936;32;34177;-61
2022/11/20 04:54:27;;;;;;;;;;;;;;;9.11;49.03;99112.66;4467800;32;34238;-63
2022/11/20 04:56:54;;;;;;;;;;;;;;;9.04;49.23;99106.12;4466069;32;33968;-62
2022/11/20 04:59:21;;;;;;;;;;;;;;;8.94;49.40;99105.16;4467534;32;33473;-62
2022/11/20 05:01:50;;;;;;;;;;;;;;;9.04;49.35;99101.63;4469171;32;34186;-64
2022/11/20 05:04:17;;;;;;;;;;;;;;;9.03;48.63;99113.28;4471759;32;33879;-61
2022/11/20 05:06:45;;;;;;;;;;;;;;;8.90;49.16;99122.38;4466303;32;33815;-64
2022/11/20 05:09:12;;;;;;;;;;;;;;;8.83;50.50;99116.66;4466741;32;33698;-62
2022/11/20 05:11:40;;;;;;;;;;;;;;;8.92;50.31;99120.41;4465931;32;34170;-63
2022/11/20 05:14:07;;;;;;;;;;;;;;;9.07;49.47;99124.56;4466666;32;34209;-62
2022/11/20 05:16:35;;;;;;;;;;;;;;;8.99;50.12;99114.50;4466298;32;34594;-62
2022/11/20 05:19:03;;;;;;;;;;;;;;;8.96;50.34;99113.91;4466600;32;33227;-62
2022/11/20 05:21:30;;;;;;;;;;;;;;;9.12;49.83;99121.50;4471301;32;32674;-63
2022/11/20 05:23:57;;;;;;;;;;;;;;;9.25;48.82;99119.59;4472565;32;34248;-62
2022/11/20 05:26:25;;;;;;;;;;;;;;;9.24;48.74;99112.53;4472157;32;33732;-63
2022/11/20 05:28:52;;;;;;;;;;;;;;;9.05;49.99;99114.03;4480806;32;34323;-64
2022/11/20 05:31:21;;;;;;;;;;;;;;;9.19;49.60;99104.06;4468076;32;33830;-63
2022/11/20 05:33:54;;;;;;;;;;;;;;;9.15;49.79;99094.56;4469826;32;32918;-61
2022/11/20 05:36:21;;;;;;;;;;;;;;;8.89;50.41;99091.28;4470069;32;34119;-62
2022/11/20 05:38:49;;;;;;;;;;;;;;;9.11;49.67;99069.94;4472688;32;33171;-61
2022/11/20 05:41:18;;;;;;;;;;;;;;;9.26;49.16;99079.41;4478124;32;34175;-62
2022/11/20 05:43:46;;;;;;;;;;;;;;;9.24;49.83;99085.84;4471783;32;33655;-61
2022/11/20 05:46:14;;;;;;;;;;;;;;;9.39;48.83;99097.12;4481248;32;33755;-62
2022/11/20 05:48:42;;;;;;;;;;;;;;;9.20;49.41;99103.09;4472520;32;32056;-62
2022/11/20 05:51:10;;;;;;;;;;;;;;;9.23;49.58;99114.38;4466618;32;35285;-63
2022/11/20 05:53:38;;;;;;;;;;;;;;;9.22;48.86;99104.66;4479616;32;34058;-63
2022/11/20 05:56:14;;;;;;;;;;;;;;;9.25;48.54;99107.09;4469173;32;34090;-62
2022/11/20 05:58:41;;;;;;;;;;;;;;;9.17;48.46;99122.00;4475820;32;31997;-62
2022/11/20 06:01:16;;;;;;;;;;;;;;;9.18;48.48;99119.25;4470085;32;34281;-65
2022/11/20 06:03:47;;;;;;;;;;;;;;;8.96;49.76;99114.72;4470906;32;33803;-62
2022/11/20 06:06:14;;;;;;;;;;;;;;;9.23;48.96;99126.88;4472468;32;34265;-63
2022/11/20 06:08:42;;;;;;;;;;;;;;;9.09;48.75;99126.16;4464669;32;33328;-62
2022/11/20 06:11:10;;;;;;;;;;;;;;;8.92;50.32;99110.59;4474451;32;33912;-62
2022/11/20 06:13:37;;;;;;;;;;;;;;;9.21;49.14;99116.34;4473629;32;36353;-64
2022/11/20 06:16:09;;;;;;;;;;;;;;;8.90;49.19;99125.03;4472935;32;34283;-62
2022/11/20 06:18:36;;;;;;;;;;;;;;;8.84;50.61;99118.34;4480801;32;33293;-63
2022/11/20 06:21:05;;;;;;;;;;;;;;;8.12;52.30;99123.78;4479200;32;32856;-63
2022/11/20 06:23:33;;;;;;;;;;;;;;;8.42;50.26;99115.34;4467309;32;33099;-63
2022/11/20 06:26:01;;;;;;;;;;;;;;;8.77;49.74;99125.13;4481623;32;34009;-62
2022/11/20 06:28:28;;;;;;;;;;;;;;;8.80;49.50;99127.56;4468744;32;33428;-62
2022/11/20 06:30:56;;;;;;;;;;;;;;;8.83;49.41;99119.34;4474054;32;33721;-62
2022/11/20 06:33:23;;;;;;;;;;;;;;;8.90;49.34;99130.38;4469046;32;34286;-62
2022/11/20 06:35:51;;;;;;;;;;;;;;;8.99;48.36;99140.31;4472525;32;35160;-76
2022/11/20 06:38:26;;;;;;;;;;;;;;;8.61;48.96;99153.00;4454232;32;31945;-69
2022/11/20 06:40:53;;;;;;;;;;;;;;;8.95;48.56;99149.53;4469005;32;32473;-66
2022/11/20 06:43:21;;;;;;;;;;;;;;;8.85;49.10;99158.25;4466604;32;35363;-67
2022/11/20 06:45:55;;;;;;;;;;;;;;;8.99;49.10;99164.34;4459418;32;34473;-66
2022/11/20 06:48:23;;;;;;;;;;;;;;;9.01;49.17;99165.06;4476397;32;33223;-66
2022/11/20 06:50:51;;;;;;;;;;;;;;;9.05;48.25;99162.06;4473686;32;34138;-66
2022/11/20 06:53:18;;;;;;;;;;;;;;;9.03;48.85;99156.00;4470193;32;35367;-66
2022/11/20 06:55:45;;;;;;;;;;;;;;;9.10;49.23;99151.03;4479199;32;34876;-66
2022/11/20 06:58:13;;;;;;;;;;;;;;;9.10;49.12;99148.34;4469769;32;33284;-67
2022/11/20 07:00:41;;;;;;;;;;;;;;;9.14;49.53;99152.47;4466788;32;32616;-65
2022/11/20 07:03:09;;;;;;;;;;;;;;;9.19;49.59;99144.97;4467448;32;33915;-66
2022/11/20 07:05:36;;;;;;;;;;;;;;;9.45;48.82;99142.06;4472248;32;34277;-66
2022/11/20 07:08:04;;;;;;;;;;;;;;;9.02;51.11;99153.41;4464668;32;33179;-66
2022/11/20 07:10:31;;;;;;;;;;;;;;;9.43;49.93;99152.84;4469964;32;34487;-66
2022/11/20 07:12:59;;;;;;;;;;;;;;;9.68;49.11;99154.41;4467333;32;35375;-65
2022/11/20 07:15:26;;;;;;;;;;;;;;;9.78;48.13;99170.56;4474661;32;33433;-68
2022/11/20 07:17:54;;;;;;;;;;;;;;;9.68;48.46;99183.81;4471375;32;33433;-65
2022/11/20 07:20:21;;;;;;;;;;;;;;;9.52;48.62;99168.13;4474532;32;35291;-65
2022/11/20 07:22:52;;;;;;;;;;;;;;;9.70;48.99;99175.69;4465148;32;34376;-66
2022/11/20 07:25:20;;;;;;;;;;;;;;;9.53;50.99;99172.53;4471876;32;33474;-68
2022/11/20 07:27:47;;;;;;;;;;;;;;;9.63;50.00;99177.13;4464771;32;33454;-69
2022/11/20 07:30:15;;;;;;;;;;;;;;;9.93;49.68;99176.50;4469357;32;35298;-66
2022/11/20 07:32:42;;;;;;;;;;;;;;;10.06;49.77;99182.53;4466722;32;34192;-66
2022/11/20 07:35:10;;;;;;;;;;;;;;;10.26;49.02;99172.91;4467504;32;35883;-67
2022/11/20 07:37:37;;;;;;;;;;;;;;;10.07;50.05;99181.56;4469022;32;32433;-67
2022/11/20 07:40:05;;;;;;;;;;;;;;;10.33;49.04;99171.41;4471084;32;35266;-66
2022/11/20 07:42:32;;;;;;;;;;;;;;;10.41;48.82;99171.63;4467478;32;35183;-67
2022/11/20 07:45:00;;;;;;;;;;;;;;;9.25;50.86;99173.84;4482042;32;34337;-67
2022/11/20 07:47:27;;;;;;;;;;;;;;;9.98;49.69;99175.16;4484068;32;33257;-67
2022/11/20 07:49:54;;;;;;;;;;;;;;;10.09;49.78;99184.13;4470530;32;34942;-67
2022/11/20 07:52:22;;;;;;;;;;;;;;;9.90;49.96;99174.91;4473662;32;34205;-67
2022/11/20 07:54:49;;;;;;;;;;;;;;;10.51;49.09;99168.19;4466355;32;34388;-67
2022/11/20 07:57:16;;;;;;;;;;;;;;;10.79;48.16;99166.72;4469271;32;33050;-67
2022/11/20 07:59:45;;;;;;;;;;;;;;;10.87;47.92;99166.91;4472945;32;35510;-67
2022/11/20 08:02:13;;;;;;;;;;;;;;;10.87;47.73;99159.72;4468640;32;34335;-66
2022/11/20 08:04:40;;;;;;;;;;;;;;;10.71;48.51;99162.00;4467582;32;32855;-67
2022/11/20 08:07:07;;;;;;;;;;;;;;;10.83;48.42;99146.75;4467725;32;32452;-66
2022/11/20 08:09:35;;;;;;;;;;;;;;;10.90;47.75;99150.59;4471845;32;34027;-66
2022/11/20 08:14:48;;;;;;;;;;;;;;;11.13;48.12;99151.28;4479937;32;34124;-65
2022/11/20 08:17:15;;;;;;;;;;;;;;;11.30;47.02;99149.81;4469376;32;33176;-66
2022/11/20 08:19:43;;;;;;;;;;;;;;;11.33;46.61;99155.78;4469673;32;33887;-65
2022/11/20 08:22:10;;;;;;;;;;;;;;;11.20;48.45;99157.81;4468195;32;34192;-65
2022/11/20 08:24:37;;;;;;;;;;;;;;;11.30;48.06;99158.72;4468696;32;34179;-66
2022/11/20 08:27:05;;;;;;;;;;;;;;;11.36;48.00;99154.63;4479307;32;34813;-66
2022/11/20 08:29:32;;;;;;;;;;;;;;;11.51;47.98;99153.31;4473282;32;32770;-67
2022/11/20 08:31:59;;;;;;;;;;;;;;;11.66;47.38;99161.84;4485725;32;33107;-65
2022/11/20 08:34:27;;;;;;;;;;;;;;;11.75;47.33;99166.38;4470292;32;35746;-64
2022/11/20 08:36:54;;;;;;;;;;;;;;;10.80;49.37;99163.06;4462936;32;33273;-67
2022/11/20 08:39:21;;;;;;;;;;;;;;;11.59;47.23;99163.37;4474181;32;33780;-67
2022/11/20 08:41:49;;;;;;;;;;;;;;;11.64;48.05;99161.94;4468569;32;34240;-65
2022/11/20 08:44:17;;;;;;;;;;;;;;;11.88;47.02;99161.66;4469240;32;34670;-65
2022/11/20 08:46:45;;;;;;;;;;;;;;;11.86;47.48;99163.59;4468065;32;32983;-65
2022/11/20 08:49:13;;;;;;;;;;;;;;;11.90;47.30;99172.22;4472997;32;34144;-65
2022/11/20 08:51:41;;;;;;;;;;;;;;;11.79;46.87;99177.69;4464941;32;33111;-64
2022/11/20 08:54:08;;;;;;;;;;;;;;;11.97;46.69;99176.03;4473760;32;34625;-65
2022/11/20 08:56:35;;;;;;;;;;;;;;;11.86;46.88;99184.22;4477009;32;34091;-65
2022/11/20 08:59:03;;;;;;;;;;;;;;;12.01;46.62;99192.75;4481372;32;34174;-65
2022/11/20 09:01:50;;;;;;;;;;;;;;;11.72;48.31;99193.47;4467897;32;34956;-65
2022/11/20 09:04:18;;;;;;;;;;;;;;;12.02;46.71;99192.59;4470780;32;34202;-65
2022/11/20 09:06:45;;;;;;;;;;;;;;;11.91;46.12;99194.53;4467642;32;35328;-65
2022/11/20 09:09:12;;;;;;;;;;;;;;;11.79;47.04;99199.13;4468894;32;35099;-65
2022/11/20 09:11:40;;;;;;;;;;;;;;;11.46;46.95;99197.56;4469063;32;32997;-68
2022/11/20 09:14:07;;;;;;;;;;;;;;;11.75;45.80;99190.50;4468852;32;35259;-66
2022/11/20 09:16:34;;;;;;;;;;;;;;;11.88;45.40;99198.34;4480804;32;32154;-67
2022/11/20 09:19:01;;;;;;;;;;;;;;;11.88;46.05;99196.50;4484849;32;34967;-67
2022/11/20 09:21:49;;;;;;;;;;;;;;;11.78;46.06;99195.59;4480171;32;32829;-65
2022/11/20 09:24:16;;;;;;;;;;;;;;;12.07;44.84;99198.41;4468922;32;33816;-66
2022/11/20 09:26:44;;;;;;;;;;;;;;;12.02;45.43;99194.44;4467473;32;31953;-65
2022/11/20 09:29:11;;;;;;;;;;;;;;;12.22;45.40;99193.47;4469360;32;32862;-65
2022/11/20 09:31:39;;;;;;;;;;;;;;;12.08;45.06;99189.34;4469186;32;34897;-65
2022/11/20 09:34:06;;;;;;;;;;;;;;;12.18;45.56;99180.50;4470005;32;32843;-65
2022/11/20 09:36:33;;;;;;;;;;;;;;;12.05;45.43;99181.59;4469373;32;33445;-65
2022/11/20 09:39:01;;;;;;;;;;;;;;;12.11;44.88;99189.09;4470789;32;34329;-65
2022/11/20 09:41:50;;;;;;;;;;;;;;;11.90;46.01;99188.31;4471849;32;32963;-65
2022/11/20 09:44:26;;;;;;;;;;;;;;;12.01;45.29;99195.44;4458490;32;33888;-66
2022/11/20 09:46:53;;;;;;;;;;;;;;;11.67;47.64;99193.00;4470018;32;34404;-65
2022/11/20 09:49:44;;;;;;;;;;;;;;;12.09;44.64;99179.47;4455807;32;33764;-65
2022/11/20 09:52:17;;;;;;;;;;;;;;;12.15;44.66;99189.66;4462808;32;33056;-65
2022/11/20 09:54:45;;;;;;;;;;;;;;;11.65;47.43;99185.13;4481280;32;34245;-65
2022/11/20 09:57:17;;;;;;;;;;;;;;;11.83;45.89;99187.97;4469088;32;33069;-65
2022/11/20 09:59:53;;;;;;;;;;;;;;;11.12;48.10;99193.28;4461973;32;34205;-65
2022/11/20 10:02:26;;;;;;;;;;;;;;;11.23;47.67;99187.00;4455750;32;32978;-65
2022/11/20 10:04:57;;;;;;;;;;;;;;;10.81;49.77;99181.66;4469746;32;34620;-64
2022/11/20 10:07:55;;;;;;;;;;;;;;;11.15;48.30;99178.78;4467583;32;35358;-66
2022/11/20 10:10:49;;;;;;;;;;;;;;;11.05;49.04;99184.09;4456131;32;34229;-68
2022/11/20 10:13:38;;;;;;;;;;;;;;;10.96;49.35;99166.97;4468412;32;34468;-66
2022/11/20 10:16:12;;;;;;;;;;;;;;;11.69;47.27;99155.34;4477553;32;32923;-65
2022/11/20 10:19:12;;;;;;;;;;;;;;;11.59;47.95;99155.31;4466990;32;33261;-65
2022/11/20 10:21:39;;;;;;;;;;;;;;;11.73;49.53;99149.56;4434089;32;32764;-68
2022/11/20 10:24:12;;;;;;;;;;;;;;;12.14;48.15;99138.84;4472448;32;33250;-66
2022/11/20 10:26:46;;;;;;;;;;;;;;;13.03;44.17;99142.16;4484562;32;34451;-65
2022/11/20 10:29:15;;;;;;;;;;;;;;;12.92;44.61;99147.72;4467695;32;33340;-65
2022/11/20 10:31:44;;;;;;;;;;;;;;;13.24;44.72;99148.22;4479747;32;35134;-65
2022/11/20 10:34:11;;;;;;;;;;;;;;;12.68;46.45;99140.97;4460353;32;32940;-65
2022/11/20 10:36:41;;;;;;;;;;;;;;;13.00;45.37;99134.38;4473003;32;34962;-65
2022/11/20 10:39:17;;;;;;;;;;;;;;;13.53;43.23;99139.19;4469686;32;33440;-65
2022/11/20 10:41:46;;;;;;;;;;;;;;;13.77;41.70;99132.44;4466475;32;34063;-65
2022/11/20 10:45:00;;;;;;;;;;;;;;;13.88;42.01;99129.53;4454178;32;34893;-65
2022/11/20 10:47:05;;;;;;;;;;;;;;;13.52;41.94;99132.16;4463976;32;33813;-66
2022/11/20 10:49:32;;;;;;;;;;;;;;;13.42;42.30;99125.97;4476300;32;33433;-65
2022/11/20 10:52:02;;;;;;;;;;;;;;;13.20;44.54;99125.28;4478736;32;35577;-64
2022/11/20 10:54:39;;;;;;;;;;;;;;;13.69;42.42;99131.34;4468699;32;34431;-65
2022/11/20 10:57:27;;;;;;;;;;;;;;;13.08;44.29;99131.00;4455173;32;34811;-65
2022/11/20 11:00:01;;;;;;;;;;;;;;;12.93;43.84;99134.13;4475235;32;33295;-65
2022/11/20 11:02:33;;;;;;;;;;;;;;;12.31;45.91;99149.72;4468084;32;32781;-66
2022/11/20 11:05:04;;;;;;;;;;;;;;;12.25;44.99;99152.09;4467043;32;34869;-67
2022/11/20 11:07:38;;;;;;;;;;;;;;;12.70;44.06;99160.44;4454623;32;32838;-65
2022/11/20 11:10:13;;;;;;;;;;;;;;;12.43;45.17;99147.75;4465509;32;32978;-65
2022/11/20 11:12:43;;;;;;;;;;;;;;;13.00;43.64;99142.44;4482279;32;32849;-66
2022/11/20 11:15:12;;;;;;;;;;;;;;;12.85;43.97;99146.59;4457195;32;36201;-66
2022/11/20 11:17:45;;;;;;;;;;;;;;;12.42;45.57;99158.59;4453672;32;35527;-65
2022/11/20 11:20:23;;;;;;;;;;;;;;;12.39;44.38;99164.25;4468479;32;33312;-64
2022/11/20 11:22:52;;;;;;;;;;;;;;;12.82;44.03;99158.47;4467983;32;35290;-65
2022/11/20 11:25:27;;;;;;;;;;;;;;;12.44;45.20;99168.22;4454444;32;34765;-64
2022/11/20 11:27:57;;;;;;;;;;;;;;;12.39;45.02;99161.56;4467295;32;33422;-64
2022/11/20 11:30:25;;;;;;;;;;;;;;;12.79;44.27;99162.28;4463979;32;32023;-64
2022/11/20 11:33:06;;;;;;;;;;;;;;;11.94;46.47;99170.13;4454357;32;32580;-64
2022/11/20 11:35:38;;;;;;;;;;;;;;;12.37;45.88;99161.72;4467996;32;34689;-64
2022/11/20 11:38:07;;;;;;;;;;;;;;;12.45;45.48;99159.16;4459045;32;32892;-64
2022/11/20 11:40:35;;;;;;;;;;;;;;;12.96;43.84;99157.16;4458127;32;33892;-63
2022/11/20 11:43:05;;;;;;;;;;;;;;;12.75;44.41;99150.13;4459782;32;35769;-64
2022/11/20 11:45:32;;;;;;;;;;;;;;;12.52;45.29;99141.53;4468151;32;35380;-66
2022/11/20 11:48:00;;;;;;;;;;;;;;;12.67;44.78;99138.41;4460920;32;34470;-64
2022/11/20 11:50:28;;;;;;;;;;;;;;;12.44;45.03;99137.84;4465080;32;32645;-64
2022/11/20 11:53:14;;;;;;;;;;;;;;;12.85;44.40;99138.53;4465412;32;34091;-64
2022/11/20 11:55:50;;;;;;;;;;;;;;;12.51;46.68;99123.72;4468219;32;35521;-65
2022/11/20 11:58:20;;;;;;;;;;;;;;;12.29;46.52;99126.69;4458138;32;34101;-64
2022/11/20 12:00:51;;;;;;;;;;;;;;;12.72;45.60;99128.09;4452858;32;32163;-64
2022/11/20 12:03:21;;;;;;;;;;;;;;;12.79;45.41;99121.16;4457763;32;34369;-66
2022/11/20 12:05:55;;;;;;;;;;;;;;;13.13;44.90;99131.38;4462989;32;33995;-64
2022/11/20 12:08:41;;;;;;;;;;;;;;;12.46;47.47;99130.53;4466357;32;34448;-64
2022/11/20 12:11:13;;;;;;;;;;;;;;;12.29;46.43;99124.84;4466805;32;33232;-64
2022/11/20 12:13:49;;;;;;;;;;;;;;;12.69;45.93;99123.84;4462278;32;34172;-64
2022/11/20 12:16:18;;;;;;;;;;;;;;;12.24;48.60;99127.13;4465028;32;34104;-64
2022/11/20 12:18:47;;;;;;;;;;;;;;;12.14;47.93;99125.44;4464839;32;34180;-64
2022/11/20 12:21:20;;;;;;;;;;;;;;;12.21;48.21;99124.72;4468595;32;33344;-64
2022/11/20 12:23:58;;;;;;;;;;;;;;;12.87;46.55;99120.41;4465450;32;34456;-64
2022/11/20 12:26:40;;;;;;;;;;;;;;;11.77;50.09;99118.81;4468220;32;34299;-64
2022/11/20 12:29:27;;;;;;;;;;;;;;;12.91;46.47;99111.09;4469368;32;32938;-71
2022/11/20 12:31:58;;;;;;;;;;;;;;;11.69;49.19;99109.78;4466813;32;33369;-68
2022/11/20 12:34:31;;;;;;;;;;;;;;;12.38;46.87;99114.25;4455341;32;33838;-66
2022/11/20 12:37:11;;;;;;;;;;;;;;;12.67;46.55;99106.19;4484459;32;34157;-64
2022/11/20 12:39:42;;;;;;;;;;;;;;;12.25;49.50;99109.19;4466953;32;34839;-63
2022/11/20 12:45:14;;;;;;;;;;;;;;;11.84;49.58;99101.22;4460874;32;33963;-62
2022/11/20 12:47:48;;;;;;;;;;;;;;;12.73;46.01;99111.81;4456529;32;34206;-64
2022/11/20 12:50:18;;;;;;;;;;;;;;;12.90;45.78;99120.12;4472516;32;32980;-66
2022/11/20 12:52:55;;;;;;;;;;;;;;;12.32;47.12;99121.03;4474872;32;33547;-68
2022/11/20 12:55:29;;;;;;;;;;;;;;;12.41;47.43;99122.88;4469724;32;33885;-64
2022/11/20 12:57:58;;;;;;;;;;;;;;;12.73;45.32;99125.25;4468178;32;32985;-65
2022/11/20 13:00:25;;;;;;;;;;;;;;;13.00;45.48;99126.31;4471283;32;34450;-64
2022/11/20 13:03:05;;;;;;;;;;;;;;;12.88;45.63;99120.28;4471800;32;33440;-65
2022/11/20 13:05:48;;;;;;;;;;;;;;;13.17;45.67;99128.28;4462843;32;32760;-65
2022/11/20 13:08:20;;;;;;;;;;;;;;;12.58;46.20;99116.81;4472770;32;33892;-64
2022/11/20 13:11:07;;;;;;;;;;;;;;;12.76;46.24;99118.75;4469139;32;33044;-64